Data for 01/19/2006

Time Sea-Level Adjusted Pressure Absolute Pressure Temperature Relative Humidity Dew Point   
(mb) (inHg) (mb) (inHg) (C) (F) (%) (C) (F)
00:05 1011 29.85 840 24.81 -4.9 23.2 65 -10.4 13.2
00:10 1011 29.85 840 24.81 -5 23 68 -10.1 13.9
00:15 1011 29.85 840 24.81 -5.2 22.6 68 -10.3 13.5
00:20 1011 29.85 840 24.81 -5.2 22.7 69 -10 14
00:25 1011 29.85 840 24.81 -4.7 23.5 67 -10 14
00:30 1011 29.85 840 24.81 -4.8 23.4 68 -9.8 14.4
00:35 1011 29.85 840 24.81 -5.1 22.9 70 -9.7 14.5
00:40 1011 29.85 840 24.81 -5.3 22.5 71 -9.7 14.6
00:45 1011 29.85 840 24.81 -5.6 22 73 -9.7 14.5
00:50 1011 29.85 840 24.81 -5.8 21.6 74 -9.7 14.6
00:55 1011 29.85 840 24.81 -5.7 21.8 73 -9.7 14.5
01:00 1011 29.85 840 24.81 -5.6 22 73 -9.7 14.5
01:05 1011 29.85 840 24.81 -5.2 22.6 71 -9.7 14.5
01:10 1011 29.85 840 24.81 -5.1 22.7 71 -9.6 14.7
01:15 1011 29.85 840 24.81 -5.1 22.9 70 -9.8 14.4
01:20 1011 29.85 840 24.81 -4.8 23.3 69 -9.6 14.6
01:25 1011 29.85 840 24.81 -4.7 23.6 68 -9.7 14.6
01:30 1011 29.85 840 24.81 -4.8 23.3 69 -9.7 14.6
01:35 1011 29.85 840 24.81 -5.1 22.8 70 -9.7 14.5
01:40 1011 29.85 840 24.81 -5.3 22.4 70 -9.9 14.1
01:45 1011 29.85 841 24.83 -5.6 21.9 73 -9.8 14.4
01:50 1011 29.85 841 24.83 -5.9 21.4 74 -9.9 14.2
01:55 1011 29.85 841 24.83 -5.9 21.3 74 -9.9 14.2
02:00 1011 29.85 841 24.83 -5.8 21.5 73 -10 14
02:05 1012 29.88 841 24.83 -5.8 21.5 72 -10.2 13.7
02:10 1012 29.88 841 24.83 -5.7 21.8 71 -10.2 13.7
02:15 1012 29.88 841 24.83 -5.5 22 70 -10.1 13.8
02:20 1012 29.88 841 24.83 -5.7 21.8 71 -10.1 13.8
02:25 1012 29.88 841 24.83 -5.8 21.6 71 -10.1 13.8
02:30 1012 29.88 841 24.83 -6.3 20.6 72 -10.5 13.1
02:35 1012 29.88 841 24.83 -6.8 19.8 73 -10.8 12.6
02:40 1012 29.88 841 24.83 -6.7 19.9 73 -10.7 12.7
02:45 1012 29.88 841 24.83 -6.7 19.9 72 -11 12.2
02:50 1012 29.88 841 24.83 -6.6 20.1 75 -10.4 13.2
02:55 1012 29.88 841 24.83 -6.5 20.3 75 -10.3 13.4
03:00 1012 29.88 841 24.83 -6.2 20.8 74 -10.2 13.6
03:05 1012 29.88 841 24.83 -6 21.1 73 -10.2 13.7
03:10 1012 29.88 841 24.83 -5.9 21.3 73 -10 14.1
03:15 1012 29.88 841 24.83 -6.1 21.1 73 -10.2 13.7
03:20 1012 29.88 841 24.83 -6 21.2 73 -10.1 13.9
03:25 1012 29.88 841 24.83 -5.9 21.4 72 -10.1 13.9
03:30 1012 29.88 841 24.83 -6.1 21.1 73 -10.1 13.8
03:35 1012 29.88 841 24.83 -6.4 20.5 74 -10.3 13.5
03:40 1012 29.88 841 24.83 -6.3 20.7 74 -10.2 13.7
03:45 1012 29.88 841 24.83 -6.2 20.8 75 -10 13.9
03:50 1012 29.88 841 24.83 -6.1 21 74 -10.1 13.8
03:55 1012 29.88 841 24.83 -6 21.2 72 -10.2 13.6
04:00 1012 29.88 841 24.83 -5.7 21.8 71 -10.1 13.8
04:05 1012 29.88 842 24.86 -5.5 22 71 -10 14
04:10 1012 29.88 842 24.86 -5.5 22.1 71 -9.9 14.1
04:15 1012 29.88 842 24.86 -5.4 22.3 71 -9.9 14.1
04:20 1012 29.88 842 24.86 -5.4 22.3 70 -10 14
04:25 1013 29.91 842 24.86 -5.3 22.5 69 -10 14
04:30 1013 29.91 842 24.86 -5 23 68 -10.1 13.8
04:35 1013 29.91 842 24.86 -4.7 23.5 67 -9.9 14.1
04:40 1013 29.91 842 24.86 -4.6 23.7 67 -9.8 14.4
04:45 1013 29.91 842 24.86 -4.6 23.7 67 -9.8 14.3
04:50 1013 29.91 842 24.86 -4.6 23.7 67 -9.8 14.4
04:55 1013 29.91 842 24.86 -4.7 23.6 67 -9.9 14.2
05:00 1013 29.91 842 24.86 -4.7 23.6 69 -9.5 14.9
05:05 1013 29.91 842 24.86 -4.9 23.2 70 -9.5 14.9
05:10 1013 29.91 842 24.86 -4.9 23.2 70 -9.5 15
05:15 1013 29.91 842 24.86 -5.1 22.9 73 -9.2 15.4
05:20 1013 29.91 842 24.86 -4.9 23.2 71 -9.4 15
05:25 1013 29.91 842 24.86 -5 23.1 70 -9.7 14.6
05:30 1013 29.91 842 24.86 -5.1 22.8 69 -9.9 14.2
05:35 1013 29.91 842 24.86 -4.9 23.1 70 -9.7 14.6
05:40 1013 29.91 842 24.86 -5.2 22.6 73 -9.4 15.2
05:45 1013 29.91 842 24.86 -5.6 22 72 -9.8 14.4
05:50 1013 29.91 842 24.86 -5.3 22.5 71 -9.8 14.4
05:55 1013 29.91 842 24.86 -5.2 22.7 70 -9.8 14.4
06:00 1013 29.91 842 24.86 -5 23 70 -9.6 14.7
06:05 1013 29.91 842 24.86 -5 23.1 71 -9.4 15
06:10 1012 29.88 842 24.86 -4.9 23.1 71 -9.5 14.9
06:15 1013 29.91 842 24.86 -4.5 23.9 69 -9.4 15.2
06:20 1013 29.91 842 24.86 -4.4 24.2 71 -8.9 16
06:25 1013 29.91 842 24.86 -4.4 24 70 -9 15.7
06:30 1013 29.91 842 24.86 -4.3 24.2 69 -9.2 15.4
06:35 1013 29.91 842 24.86 -4.1 24.6 67 -9.3 15.3
06:40 1013 29.91 842 24.86 -3.9 25 67 -9.2 15.4
06:45 1013 29.91 842 24.86 -3.8 25.2 66 -9.3 15.2
06:50 1013 29.91 842 24.86 -3.7 25.3 66 -9.2 15.5
06:55 1013 29.91 842 24.86 -3.9 25.1 66 -9.4 15.1
07:00 1013 29.91 842 24.86 -3.9 25.1 67 -9.2 15.4
07:05 1013 29.91 842 24.86 -3.8 25.1 67 -9.1 15.5
07:10 1013 29.91 842 24.86 -3.7 25.3 66 -9.1 15.5
07:15 1013 29.91 842 24.86 -3.8 25.2 65 -9.4 15.1
07:20 1013 29.91 842 24.86 -3.8 25.2 68 -8.8 16.1
07:25 1013 29.91 842 24.86 -4.2 24.4 72 -8.5 16.7
07:30 1013 29.91 842 24.86 -4.8 23.4 74 -8.6 16.5
07:35 1013 29.91 842 24.86 -5 23 73 -9 15.7
07:40 1013 29.91 842 24.86 -4.8 23.4 71 -9.2 15.4
07:45 1013 29.91 842 24.86 -4.4 24.1 68 -9.4 15.1
07:50 1013 29.91 842 24.86 -4.1 24.6 69 -9 15.8
07:55 1013 29.91 843 24.89 -4.6 23.7 69 -9.4 15
08:00 1013 29.91 843 24.89 -4.3 24.3 69 -9.1 15.6
08:05 1013 29.91 843 24.89 -4.3 24.3 69 -9.2 15.5
08:10 1013 29.91 843 24.89 -4.3 24.3 69 -9.1 15.7
08:15 1013 29.91 843 24.89 -4.1 24.7 69 -9 15.9
08:20 1013 29.91 843 24.89 -3.9 24.9 69 -8.8 16.1
08:25 1013 29.91 843 24.89 -3.9 25 67 -9.2 15.4
08:30 1013 29.91 843 24.89 -3.8 25.2 69 -8.7 16.4
08:35 1014 29.94 843 24.89 -3.7 25.3 67 -9 15.8
08:40 1014 29.94 843 24.89 -3.7 25.4 68 -8.8 16.1
08:45 1014 29.94 843 24.89 -3.5 25.6 65 -9.3 15.3
08:50 1014 29.94 843 24.89 -3.4 25.8 67 -8.7 16.3
08:55 1014 29.94 843 24.89 -3.5 25.7 67 -8.7 16.3
09:00 1014 29.94 843 24.89 -3.7 25.4 69 -8.6 16.5
09:05 1014 29.94 843 24.89 -3.7 25.4 70 -8.5 16.8
09:10 1014 29.94 843 24.89 -3.5 25.6 65 -9.2 15.4
09:15 1014 29.94 843 24.89 -3.3 26.1 63 -9.3 15.3
09:20 1014 29.94 843 24.89 -3.2 26.2 62 -9.4 15
09:25 1014 29.94 843 24.89 -3.3 26 63 -9.3 15.2
09:30 1014 29.94 843 24.89 -3.5 25.8 64 -9.3 15.3
09:35 1014 29.94 843 24.89 -3.6 25.5 64 -9.4 15.1
09:40 1014 29.94 843 24.89 -3.4 25.9 61 -9.9 14.1
09:45 1014 29.94 843 24.89 -2.6 27.3 57 -10 13.9
09:50 1014 29.94 843 24.89 -1.4 29.5 53 -9.7 14.6
09:55 1014 29.94 843 24.89 -1.7 28.9 55 -9.6 14.7
10:00 1014 29.94 843 24.89 -2.3 27.9 57 -9.7 14.5
10:05 1014 29.94 843 24.89 -1.8 28.7 54 -9.9 14.2
10:10 1014 29.94 843 24.89 -0.8 30.6 57 -8.3 17.1
10:15 1014 29.94 843 24.89 -1.5 29.3 59 -8.6 16.6
10:20 1014 29.94 843 24.89 -1.7 28.9 58 -9 15.9
10:25 1014 29.94 843 24.89 -1.6 29.1 57 -9.1 15.5
10:30 1014 29.94 844 24.92 -1.5 29.3 58 -8.8 16.1
10:35 1014 29.94 844 24.92 -1.9 28.7 61 -8.5 16.7
10:40 1014 29.94 844 24.92 -1.7 29 59 -8.6 16.6
10:45 1014 29.94 844 24.92 -1.3 29.7 54 -9.5 14.8
10:50 1014 29.94 844 24.92 -1.1 30 55 -9 15.9
10:55 1014 29.94 844 24.92 -0.9 30.4 53 -9.2 15.4
11:00 1014 29.94 844 24.92 -0.9 30.4 54 -9.2 15.5
11:05 1014 29.94 844 24.92 -1.2 29.8 53 -9.5 14.9
11:10 1014 29.94 844 24.92 -1.5 29.4 54 -9.6 14.6
11:15 1014 29.94 844 24.92 -0.8 30.6 53 -9.3 15.2
11:20 1014 29.94 843 24.89 -0.5 31.1 52 -9.3 15.2
11:25 1014 29.94 843 24.89 -0.7 30.7 53 -9.2 15.4
11:30 1014 29.94 843 24.89 -0.7 30.7 51 -9.6 14.6
11:35 1014 29.94 843 24.89 -0.6 30.8 53 -9.1 15.6
11:40 1014 29.94 843 24.89 -0.4 31.2 50 -9.5 14.8
11:45 1014 29.94 843 24.89 0.4 32.7 48 -9.5 15
11:50 1014 29.94 843 24.89 1.5 34.8 42 -10.2 13.7
11:55 1014 29.94 843 24.89 1.8 35.3 45 -9 15.9
12:00 1014 29.94 843 24.89 2.2 36 42 -9.3 15.3
12:05 1014 29.94 843 24.89 2.6 36.7 41 -9.4 15
12:10 1014 29.94 843 24.89 2.8 37 40 -9.6 14.8
12:15 1014 29.94 843 24.89 2.6 36.7 36 -10.9 12.5
12:20 1014 29.94 843 24.89 2 35.6 40 -10.2 13.6
12:25 1014 29.94 843 24.89 1.8 35.2 40 -10.4 13.3
12:30 1014 29.94 843 24.89 2.1 35.8 40 -10.2 13.7
12:35 1014 29.94 843 24.89 1.2 34.1 41 -10.6 12.9
12:40 1014 29.94 843 24.89 0.8 33.4 42 -10.8 12.5
12:45 1014 29.94 843 24.89 1.4 34.4 41 -10.4 13.3
12:50 1014 29.94 843 24.89 2.6 36.6 38 -10.4 13.3
12:55 1014 29.94 843 24.89 2.9 37.2 38 -10.2 13.6
13:00 1014 29.94 843 24.89 3.1 37.5 37 -10.4 13.2
13:05 1014 29.94 843 24.89 1.3 34.3 44 -9.6 14.7
13:10 1014 29.94 843 24.89 0.4 32.7 45 -10.3 13.5
13:15 1013 29.91 843 24.89 0.4 32.7 46 -9.9 14.1
13:20 1013 29.91 843 24.89 0.6 33 47 -9.6 14.7
13:25 1013 29.91 843 24.89 0.7 33.3 46 -9.8 14.4
13:30 1013 29.91 843 24.89 1.2 34.1 43 -9.9 14.1
13:35 1013 29.91 843 24.89 0.9 33.7 44 -10 13.9
13:40 1013 29.91 843 24.89 1.3 34.4 42 -10.2 13.6
13:45 1013 29.91 843 24.89 2.1 35.7 39 -10.6 13
13:50 1013 29.91 843 24.89 2 35.6 40 -10.3 13.5
13:55 1013 29.91 843 24.89 1.9 35.5 42 -9.7 14.5
14:00 1013 29.91 842 24.86 1.9 35.4 43 -9.6 14.7
14:05 1013 29.91 842 24.86 1.4 34.6 42 -10.1 13.8
14:10 1013 29.91 843 24.89 1.2 34.1 43 -10 14
14:15 1013 29.91 842 24.86 1.1 34 43 -10 14
14:20 1013 29.91 842 24.86 1.5 34.8 42 -10 13.9
14:25 1013 29.91 842 24.86 1.7 35 41 -10.1 13.8
14:30 1013 29.91 842 24.86 1.6 34.9 42 -9.9 14.1
14:35 1013 29.91 842 24.86 1.7 35 42 -10 14.1
14:40 1013 29.91 842 24.86 1.6 34.8 42 -10.1 13.7
14:45 1013 29.91 842 24.86 1.5 34.7 41 -10.2 13.6
14:50 1013 29.91 842 24.86 1.6 34.8 41 -10.4 13.3
14:55 1013 29.91 842 24.86 1.6 34.8 40 -10.6 12.8
15:00 1013 29.91 842 24.86 0.9 33.7 45 -9.6 14.7
15:05 1013 29.91 842 24.86 0.4 32.6 43 -10.7 12.7
15:10 1013 29.91 842 24.86 0.4 32.7 44 -10.6 12.9
15:15 1013 29.91 842 24.86 0.3 32.5 44 -10.6 12.9
15:20 1013 29.91 842 24.86 0.3 32.5 42 -11.3 11.6
15:25 1013 29.91 842 24.86 0.4 32.6 43 -11 12.3
15:30 1013 29.91 842 24.86 0.1 32.3 43 -11.1 12.1
15:35 1013 29.91 842 24.86 0 32.1 44 -10.8 12.5
15:40 1013 29.91 842 24.86 -0 32 43 -11.3 11.7
15:45 1013 29.91 842 24.86 -0 31.9 44 -11 12.2
15:50 1013 29.91 842 24.86 0.1 32.1 42 -11.4 11.6
15:55 1013 29.91 842 24.86 0.1 32.3 44 -10.8 12.5
16:00 1013 29.91 842 24.86 0.3 32.5 44 -10.5 13.1
16:05 1013 29.91 842 24.86 0.5 32.9 43 -10.8 12.5
16:10 1013 29.91 842 24.86 0.7 33.2 43 -10.5 13
16:15 1013 29.91 842 24.86 0.8 33.5 41 -11 12.3
16:20 1013 29.91 842 24.86 0.8 33.5 42 -10.6 12.9
16:25 1013 29.91 842 24.86 0.6 33 44 -10.4 13.3
16:30 1013 29.91 842 24.86 0.6 33.1 44 -10.2 13.6
16:35 1013 29.91 842 24.86 0.7 33.3 44 -10.2 13.6
16:40 1013 29.91 842 24.86 0.6 33.1 44 -10.2 13.6
16:45 1013 29.91 842 24.86 0.7 33.2 44 -10.2 13.6
16:50 1013 29.91 842 24.86 0.7 33.3 45 -9.9 14.2
16:55 1013 29.91 842 24.86 0.8 33.4 45 -9.8 14.3
17:00 1013 29.91 842 24.86 0.7 33.3 46 -9.6 14.7
17:05 1013 29.91 842 24.86 0.6 33.1 47 -9.3 15.2
17:10 1013 29.91 843 24.89 0.6 33 48 -9.3 15.3
17:15 1013 29.91 843 24.89 0.6 33 48 -9.3 15.2
17:20 1013 29.91 843 24.89 0.5 32.8 49 -9.2 15.5
17:25 1013 29.91 843 24.89 0.4 32.7 49 -9.3 15.3
17:30 1013 29.91 843 24.89 0.1 32.2 51 -9 15.9
17:35 1014 29.94 843 24.89 -0.1 31.9 54 -8.4 16.9
17:40 1014 29.94 843 24.89 -0.1 31.8 54 -8.3 17
17:45 1014 29.94 843 24.89 -0.1 31.8 53 -8.6 16.6
17:50 1014 29.94 843 24.89 -0 32 54 -8.2 17.2
17:55 1014 29.94 843 24.89 -0.1 31.8 56 -7.9 17.7
18:00 1014 29.94 843 24.89 -0 31.9 57 -7.7 18.2
18:05 1014 29.94 843 24.89 0 32 57 -7.6 18.4
18:10 1014 29.94 843 24.89 -0 31.9 57 -7.5 18.5
18:15 1014 29.94 843 24.89 -0.2 31.7 58 -7.5 18.6
18:20 1014 29.94 843 24.89 -0.4 31.3 59 -7.5 18.6
18:25 1014 29.94 843 24.89 -0.6 30.9 60 -7.4 18.7
18:30 1014 29.94 843 24.89 -0.9 30.4 61 -7.5 18.6
18:35 1014 29.94 843 24.89 -1 30.3 57 -8.4 16.9
18:40 1014 29.94 843 24.89 -0.7 30.7 56 -8.4 16.8
18:45 1014 29.94 843 24.89 -0.6 31 56 -8.3 17.1
18:50 1014 29.94 843 24.89 -0.7 30.8 56 -8.4 16.9
18:55 1014 29.94 843 24.89 -1 30.1 59 -8.2 17.3
19:00 1014 29.94 843 24.89 -1.2 29.9 60 -8.1 17.5
19:05 1014 29.94 843 24.89 -1.3 29.6 59 -8.5 16.8
19:10 1014 29.94 843 24.89 -1.4 29.6 58 -8.6 16.6
19:15 1014 29.94 843 24.89 -1.3 29.7 58 -8.6 16.6
19:20 1014 29.94 843 24.89 -1.2 29.8 59 -8.2 17.2
19:25 1014 29.94 843 24.89 -1.2 29.8 60 -8.1 17.4
19:30 1014 29.94 843 24.89 -1.2 29.9 60 -8 17.5
19:35 1014 29.94 843 24.89 -1.1 30 62 -7.6 18.4
19:40 1014 29.94 843 24.89 -1.2 29.8 61 -7.9 17.8
19:45 1014 29.94 843 24.89 -1.2 29.9 57 -8.5 16.7
19:50 1014 29.94 844 24.92 -0.9 30.3 59 -8 17.7
19:55 1014 29.94 844 24.92 -0.9 30.3 60 -7.8 17.9
20:00 1014 29.94 844 24.92 -1 30.2 61 -7.6 18.4
20:05 1014 29.94 844 24.92 -1 30.2 63 -7.1 19.2
20:10 1015 29.97 844 24.92 -1.2 29.9 71 -5.8 21.5
20:15 1015 29.97 844 24.92 -1.5 29.2 76 -5.2 22.7
20:20 1015 29.97 844 24.92 -1.7 28.9 78 -5.1 22.9
20:25 1015 29.97 844 24.92 -1.8 28.8 79 -5 23
20:30 1015 29.97 844 24.92 -1.8 28.7 79 -5 23
20:35 1015 29.97 844 24.92 -1.8 28.7 80 -4.8 23.3
20:40 1015 29.97 844 24.92 -1.9 28.6 80 -4.9 23.2
20:45 1015 29.97 844 24.92 -1.8 28.7 79 -5 23
20:50 1015 29.97 844 24.92 -1.9 28.6 78 -5.2 22.7
20:55 1015 29.97 844 24.92 -1.9 28.6 78 -5.3 22.5
21:00 1015 29.97 844 24.92 -1.9 28.5 78 -5.3 22.5
21:05 1015 29.97 844 24.92 -1.9 28.6 78 -5.2 22.6
21:10 1015 29.97 844 24.92 -1.8 28.7 78 -5.2 22.6
21:15 1015 29.97 844 24.92 -1.8 28.8 76 -5.5 22
21:20 1015 29.97 844 24.92 -1.8 28.8 75 -5.7 21.8
21:25 1015 29.97 844 24.92 -1.7 28.9 73 -6 21.3
21:30 1015 29.97 844 24.92 -1.7 29 69 -6.7 19.9
21:35 1015 29.97 844 24.92 -1.7 29 64 -7.6 18.4
21:40 1015 29.97 844 24.92 -1.6 29.1 60 -8.4 16.9
21:45 1015 29.97 844 24.92 -1.4 29.5 59 -8.4 16.9
21:50 1015 29.97 844 24.92 -1.4 29.4 59 -8.5 16.7
21:55 1015 29.97 844 24.92 -1.6 29.2 59 -8.5 16.7
22:00 1015 29.97 844 24.92 -1.7 29 60 -8.5 16.7
22:05 1015 29.97 844 24.92 -1.7 28.9 60 -8.4 16.9
22:10 1015 29.97 844 24.92 -1.7 28.9 60 -8.5 16.6
22:15 1015 29.97 844 24.92 -1.7 28.9 59 -8.6 16.5
22:20 1015 29.97 844 24.92 -1.7 29 59 -8.7 16.3
22:25 1015 29.97 844 24.92 -1.7 29 59 -8.6 16.5
22:30 1015 29.97 844 24.92 -1.7 29 59 -8.8 16.2
22:35 1015 29.97 844 24.92 -1.7 28.9 58 -8.9 16
22:40 1015 29.97 844 24.92 -1.7 28.9 58 -9.1 15.7
22:45 1015 29.97 844 24.92 -1.7 28.9 57 -9 15.7
22:50 1015 29.97 844 24.92 -1.7 29 57 -9.2 15.4
22:55 1015 29.97 845 24.95 -1.7 28.9 57 -9.1 15.7
23:00 1015 29.97 845 24.95 -1.7 28.9 57 -9.2 15.4
23:05 1015 29.97 845 24.95 -1.7 28.9 56 -9.4 15.2
23:10 1015 29.97 845 24.95 -1.7 28.9 56 -9.4 15
23:15 1015 29.97 845 24.95 -1.7 28.9 56 -9.3 15.3
23:20 1016 30 845 24.95 -1.6 29 57 -9.1 15.6
23:25 1016 30 845 24.95 -1.8 28.7 58 -9 15.8
23:30 1016 30 845 24.95 -1.9 28.6 59 -9 15.9
23:35 1016 30 845 24.95 -2 28.4 59 -9 15.8
23:40 1016 30 845 24.95 -1.9 28.5 59 -8.8 16.1
23:45 1016 30 845 24.95 -2 28.4 59 -9.1 15.6
23:50 1016 30 845 24.95 -2 28.4 59 -8.9 16
23:55 1016 30 845 24.95 -2.2 28.1 60 -9 15.8
24:00 1015 29.97 845 24.95 -2.2 28 59 -9.1 15.6